sensor_id;sensor_type;location;lat;lon;timestamp;P1;durP1;ratioP1;P2;durP2;ratioP2
7203;SDS011;3643;52.460;13.322;2023-06-26T00:01:28;10.00;;;8.50;;
7203;SDS011;3643;52.460;13.322;2023-06-26T00:03:58;11.10;;;9.30;;
7203;SDS011;3643;52.460;13.322;2023-06-26T00:06:29;13.40;;;9.27;;
7203;SDS011;3643;52.460;13.322;2023-06-26T00:08:57;15.43;;;9.53;;
7203;SDS011;3643;52.460;13.322;2023-06-26T00:11:26;10.40;;;8.50;;
7203;SDS011;3643;52.460;13.322;2023-06-26T00:13:57;12.43;;;9.63;;
7203;SDS011;3643;52.460;13.322;2023-06-26T00:16:26;13.90;;;10.00;;
7203;SDS011;3643;52.460;13.322;2023-06-26T00:18:54;10.70;;;8.77;;
7203;SDS011;3643;52.460;13.322;2023-06-26T00:21:22;9.77;;;8.20;;
7203;SDS011;3643;52.460;13.322;2023-06-26T00:23:52;9.97;;;8.60;;
7203;SDS011;3643;52.460;13.322;2023-06-26T00:26:20;11.13;;;8.80;;
7203;SDS011;3643;52.460;13.322;2023-06-26T00:28:50;10.37;;;8.57;;
7203;SDS011;3643;52.460;13.322;2023-06-26T00:31:19;11.47;;;9.27;;
7203;SDS011;3643;52.460;13.322;2023-06-26T00:33:47;10.03;;;8.93;;
7203;SDS011;3643;52.460;13.322;2023-06-26T00:36:15;9.23;;;8.07;;
7203;SDS011;3643;52.460;13.322;2023-06-26T00:38:44;10.10;;;8.83;;
7203;SDS011;3643;52.460;13.322;2023-06-26T00:41:13;10.40;;;9.13;;
7203;SDS011;3643;52.460;13.322;2023-06-26T00:43:42;10.17;;;8.70;;
7203;SDS011;3643;52.460;13.322;2023-06-26T00:46:10;10.33;;;8.90;;
7203;SDS011;3643;52.460;13.322;2023-06-26T00:48:41;10.83;;;8.70;;
7203;SDS011;3643;52.460;13.322;2023-06-26T00:51:12;10.50;;;9.40;;
7203;SDS011;3643;52.460;13.322;2023-06-26T00:53:41;10.67;;;9.20;;
7203;SDS011;3643;52.460;13.322;2023-06-26T00:56:09;9.40;;;8.27;;
7203;SDS011;3643;52.460;13.322;2023-06-26T00:58:40;13.00;;;9.10;;
7203;SDS011;3643;52.460;13.322;2023-06-26T01:01:08;11.70;;;8.70;;
7203;SDS011;3643;52.460;13.322;2023-06-26T01:03:40;9.60;;;8.47;;
7203;SDS011;3643;52.460;13.322;2023-06-26T01:06:09;8.73;;;7.83;;
7203;SDS011;3643;52.460;13.322;2023-06-26T01:08:40;10.03;;;8.57;;
7203;SDS011;3643;52.460;13.322;2023-06-26T01:11:09;8.50;;;7.70;;
7203;SDS011;3643;52.460;13.322;2023-06-26T01:13:39;9.87;;;8.57;;
7203;SDS011;3643;52.460;13.322;2023-06-26T01:16:10;13.63;;;10.23;;
7203;SDS011;3643;52.460;13.322;2023-06-26T01:18:39;11.07;;;8.63;;
7203;SDS011;3643;52.460;13.322;2023-06-26T01:21:09;10.07;;;8.67;;
7203;SDS011;3643;52.460;13.322;2023-06-26T01:23:39;10.63;;;8.67;;
7203;SDS011;3643;52.460;13.322;2023-06-26T01:26:25;13.67;;;10.40;;
7203;SDS011;3643;52.460;13.322;2023-06-26T01:28:56;10.77;;;9.30;;
7203;SDS011;3643;52.460;13.322;2023-06-26T01:31:27;10.70;;;9.30;;
7203;SDS011;3643;52.460;13.322;2023-06-26T01:33:58;11.60;;;10.27;;
7203;SDS011;3643;52.460;13.322;2023-06-26T01:36:27;12.17;;;10.23;;
7203;SDS011;3643;52.460;13.322;2023-06-26T01:38:55;11.50;;;10.13;;
7203;SDS011;3643;52.460;13.322;2023-06-26T01:41:24;9.40;;;8.43;;
7203;SDS011;3643;52.460;13.322;2023-06-26T01:44:02;9.37;;;8.43;;
7203;SDS011;3643;52.460;13.322;2023-06-26T01:46:39;10.03;;;8.53;;
7203;SDS011;3643;52.460;13.322;2023-06-26T01:49:14;9.40;;;8.40;;
7203;SDS011;3643;52.460;13.322;2023-06-26T01:51:51;11.60;;;9.23;;
7203;SDS011;3643;52.460;13.322;2023-06-26T01:54:26;10.50;;;9.20;;
7203;SDS011;3643;52.460;13.322;2023-06-26T01:57:02;10.07;;;9.07;;
7203;SDS011;3643;52.460;13.322;2023-06-26T01:59:31;11.30;;;8.90;;
7203;SDS011;3643;52.460;13.322;2023-06-26T02:02:01;11.83;;;10.57;;
7203;SDS011;3643;52.460;13.322;2023-06-26T02:04:29;13.60;;;10.37;;
7203;SDS011;3643;52.460;13.322;2023-06-26T02:06:58;10.90;;;9.40;;
7203;SDS011;3643;52.460;13.322;2023-06-26T02:09:26;15.17;;;11.07;;
7203;SDS011;3643;52.460;13.322;2023-06-26T02:11:54;11.73;;;9.73;;
7203;SDS011;3643;52.460;13.322;2023-06-26T02:14:24;14.17;;;10.00;;
7203;SDS011;3643;52.460;13.322;2023-06-26T02:16:52;11.80;;;9.80;;
7203;SDS011;3643;52.460;13.322;2023-06-26T02:19:20;10.90;;;9.00;;
7203;SDS011;3643;52.460;13.322;2023-06-26T02:21:48;11.30;;;9.00;;
7203;SDS011;3643;52.460;13.322;2023-06-26T02:24:17;11.10;;;9.87;;
7203;SDS011;3643;52.460;13.322;2023-06-26T02:26:45;10.37;;;9.27;;
7203;SDS011;3643;52.460;13.322;2023-06-26T02:29:15;10.83;;;9.63;;
7203;SDS011;3643;52.460;13.322;2023-06-26T02:31:45;11.47;;;9.83;;
7203;SDS011;3643;52.460;13.322;2023-06-26T02:34:13;11.37;;;9.60;;
7203;SDS011;3643;52.460;13.322;2023-06-26T02:36:41;10.30;;;9.03;;
7203;SDS011;3643;52.460;13.322;2023-06-26T02:39:09;10.30;;;9.20;;
7203;SDS011;3643;52.460;13.322;2023-06-26T02:41:38;15.43;;;11.03;;
7203;SDS011;3643;52.460;13.322;2023-06-26T02:44:06;14.57;;;9.83;;
7203;SDS011;3643;52.460;13.322;2023-06-26T02:46:34;10.90;;;9.80;;
7203;SDS011;3643;52.460;13.322;2023-06-26T02:49:04;11.83;;;9.50;;
7203;SDS011;3643;52.460;13.322;2023-06-26T02:51:32;11.67;;;10.07;;
7203;SDS011;3643;52.460;13.322;2023-06-26T02:54:01;12.43;;;10.40;;
7203;SDS011;3643;52.460;13.322;2023-06-26T02:56:29;12.93;;;11.27;;
7203;SDS011;3643;52.460;13.322;2023-06-26T02:58:58;13.90;;;12.27;;
7203;SDS011;3643;52.460;13.322;2023-06-26T03:01:26;12.23;;;10.80;;
7203;SDS011;3643;52.460;13.322;2023-06-26T03:03:54;15.17;;;12.63;;
7203;SDS011;3643;52.460;13.322;2023-06-26T03:06:25;13.97;;;12.00;;
7203;SDS011;3643;52.460;13.322;2023-06-26T03:08:54;11.43;;;10.20;;
7203;SDS011;3643;52.460;13.322;2023-06-26T03:11:22;11.97;;;10.77;;
7203;SDS011;3643;52.460;13.322;2023-06-26T03:13:50;12.23;;;10.87;;
7203;SDS011;3643;52.460;13.322;2023-06-26T03:16:18;12.60;;;11.03;;
7203;SDS011;3643;52.460;13.322;2023-06-26T03:18:47;12.13;;;10.37;;
7203;SDS011;3643;52.460;13.322;2023-06-26T03:21:15;12.60;;;11.10;;
7203;SDS011;3643;52.460;13.322;2023-06-26T03:23:45;12.47;;;11.20;;
7203;SDS011;3643;52.460;13.322;2023-06-26T03:26:14;12.93;;;11.07;;
7203;SDS011;3643;52.460;13.322;2023-06-26T03:28:42;13.23;;;10.90;;
7203;SDS011;3643;52.460;13.322;2023-06-26T03:31:10;11.80;;;10.47;;
7203;SDS011;3643;52.460;13.322;2023-06-26T03:33:38;11.53;;;10.23;;
7203;SDS011;3643;52.460;13.322;2023-06-26T03:36:07;12.23;;;10.93;;
7203;SDS011;3643;52.460;13.322;2023-06-26T03:38:35;12.33;;;11.03;;
7203;SDS011;3643;52.460;13.322;2023-06-26T03:41:06;12.37;;;10.53;;
7203;SDS011;3643;52.460;13.322;2023-06-26T03:43:34;12.50;;;10.97;;
7203;SDS011;3643;52.460;13.322;2023-06-26T03:46:05;13.13;;;11.73;;
7203;SDS011;3643;52.460;13.322;2023-06-26T03:48:34;11.63;;;10.43;;
7203;SDS011;3643;52.460;13.322;2023-06-26T03:51:04;13.77;;;11.07;;
7203;SDS011;3643;52.460;13.322;2023-06-26T03:53:33;11.97;;;10.73;;
7203;SDS011;3643;52.460;13.322;2023-06-26T03:56:01;11.90;;;9.93;;
7203;SDS011;3643;52.460;13.322;2023-06-26T03:58:31;11.20;;;9.67;;
7203;SDS011;3643;52.460;13.322;2023-06-26T04:00:59;13.27;;;10.33;;
7203;SDS011;3643;52.460;13.322;2023-06-26T04:03:27;10.73;;;9.63;;
7203;SDS011;3643;52.460;13.322;2023-06-26T04:05:56;11.37;;;9.80;;
7203;SDS011;3643;52.460;13.322;2023-06-26T04:08:24;10.43;;;9.43;;
7203;SDS011;3643;52.460;13.322;2023-06-26T04:10:53;12.67;;;11.37;;
7203;SDS011;3643;52.460;13.322;2023-06-26T04:13:24;13.60;;;12.00;;
7203;SDS011;3643;52.460;13.322;2023-06-26T04:15:53;14.13;;;12.37;;
7203;SDS011;3643;52.460;13.322;2023-06-26T04:18:21;13.57;;;11.63;;
7203;SDS011;3643;52.460;13.322;2023-06-26T04:21:07;13.57;;;11.83;;
7203;SDS011;3643;52.460;13.322;2023-06-26T04:23:37;11.40;;;10.20;;
7203;SDS011;3643;52.460;13.322;2023-06-26T04:26:07;12.90;;;11.50;;
7203;SDS011;3643;52.460;13.322;2023-06-26T04:28:35;12.57;;;10.90;;
7203;SDS011;3643;52.460;13.322;2023-06-26T04:31:05;12.90;;;11.50;;
7203;SDS011;3643;52.460;13.322;2023-06-26T04:33:35;14.03;;;10.70;;
7203;SDS011;3643;52.460;13.322;2023-06-26T04:36:08;11.90;;;10.20;;
7203;SDS011;3643;52.460;13.322;2023-06-26T04:38:37;11.10;;;9.87;;
7203;SDS011;3643;52.460;13.322;2023-06-26T04:41:05;11.20;;;9.93;;
7203;SDS011;3643;52.460;13.322;2023-06-26T04:43:33;11.50;;;10.30;;
7203;SDS011;3643;52.460;13.322;2023-06-26T04:46:02;11.77;;;10.43;;
7203;SDS011;3643;52.460;13.322;2023-06-26T04:48:31;13.87;;;10.37;;
7203;SDS011;3643;52.460;13.322;2023-06-26T04:51:00;11.57;;;9.77;;
7203;SDS011;3643;52.460;13.322;2023-06-26T04:53:28;12.33;;;10.83;;
7203;SDS011;3643;52.460;13.322;2023-06-26T04:55:56;12.17;;;10.83;;
7203;SDS011;3643;52.460;13.322;2023-06-26T04:58:24;12.07;;;10.83;;
7203;SDS011;3643;52.460;13.322;2023-06-26T05:00:52;14.60;;;10.60;;
7203;SDS011;3643;52.460;13.322;2023-06-26T05:03:21;11.13;;;9.53;;
7203;SDS011;3643;52.460;13.322;2023-06-26T05:05:51;12.67;;;9.50;;
7203;SDS011;3643;52.460;13.322;2023-06-26T05:08:21;12.57;;;9.63;;
7203;SDS011;3643;52.460;13.322;2023-06-26T05:10:49;10.17;;;9.03;;
7203;SDS011;3643;52.460;13.322;2023-06-26T05:13:19;8.90;;;8.00;;
7203;SDS011;3643;52.460;13.322;2023-06-26T05:15:48;8.60;;;7.80;;
7203;SDS011;3643;52.460;13.322;2023-06-26T05:18:17;11.70;;;8.27;;
7203;SDS011;3643;52.460;13.322;2023-06-26T05:20:46;9.70;;;8.20;;
7203;SDS011;3643;52.460;13.322;2023-06-26T05:23:16;10.13;;;9.13;;
7203;SDS011;3643;52.460;13.322;2023-06-26T05:25:45;9.80;;;8.47;;
7203;SDS011;3643;52.460;13.322;2023-06-26T05:28:14;10.37;;;9.30;;
7203;SDS011;3643;52.460;13.322;2023-06-26T05:30:42;10.70;;;8.77;;
7203;SDS011;3643;52.460;13.322;2023-06-26T05:33:11;10.17;;;8.53;;
7203;SDS011;3643;52.460;13.322;2023-06-26T05:35:41;13.30;;;8.80;;
7203;SDS011;3643;52.460;13.322;2023-06-26T05:38:13;10.13;;;8.57;;
7203;SDS011;3643;52.460;13.322;2023-06-26T05:40:43;8.97;;;8.03;;
7203;SDS011;3643;52.460;13.322;2023-06-26T05:43:12;9.30;;;8.40;;
7203;SDS011;3643;52.460;13.322;2023-06-26T05:45:41;10.07;;;7.83;;
7203;SDS011;3643;52.460;13.322;2023-06-26T05:48:09;9.38;;;8.38;;
7203;SDS011;3643;52.460;13.322;2023-06-26T05:50:38;12.25;;;8.82;;
7203;SDS011;3643;52.460;13.322;2023-06-26T05:53:08;8.90;;;8.07;;
7203;SDS011;3643;52.460;13.322;2023-06-26T05:55:37;8.45;;;7.65;;
7203;SDS011;3643;52.460;13.322;2023-06-26T05:58:11;8.23;;;7.10;;
7203;SDS011;3643;52.460;13.322;2023-06-26T06:00:40;8.48;;;7.35;;
7203;SDS011;3643;52.460;13.322;2023-06-26T06:03:09;8.50;;;7.47;;
7203;SDS011;3643;52.460;13.322;2023-06-26T06:05:37;9.35;;;7.90;;
7203;SDS011;3643;52.460;13.322;2023-06-26T06:08:06;7.57;;;6.55;;
7203;SDS011;3643;52.460;13.322;2023-06-26T06:10:34;8.20;;;7.30;;
7203;SDS011;3643;52.460;13.322;2023-06-26T06:13:03;8.02;;;7.00;;
7203;SDS011;3643;52.460;13.322;2023-06-26T06:15:33;10.95;;;7.80;;
7203;SDS011;3643;52.460;13.322;2023-06-26T06:18:01;7.57;;;6.82;;
7203;SDS011;3643;52.460;13.322;2023-06-26T06:20:30;10.35;;;8.00;;
7203;SDS011;3643;52.460;13.322;2023-06-26T06:22:58;8.63;;;7.18;;
7203;SDS011;3643;52.460;13.322;2023-06-26T06:25:26;7.95;;;7.07;;
7203;SDS011;3643;52.460;13.322;2023-06-26T06:27:55;7.97;;;7.28;;
7203;SDS011;3643;52.460;13.322;2023-06-26T06:30:24;9.07;;;7.80;;
7203;SDS011;3643;52.460;13.322;2023-06-26T06:33:11;8.13;;;7.15;;
7203;SDS011;3643;52.460;13.322;2023-06-26T06:35:40;8.35;;;7.55;;
7203;SDS011;3643;52.460;13.322;2023-06-26T06:38:08;8.55;;;7.65;;
7203;SDS011;3643;52.460;13.322;2023-06-26T06:40:36;10.70;;;6.75;;
7203;SDS011;3643;52.460;13.322;2023-06-26T06:43:05;6.68;;;6.07;;
7203;SDS011;3643;52.460;13.322;2023-06-26T06:45:33;7.72;;;7.03;;
7203;SDS011;3643;52.460;13.322;2023-06-26T06:48:01;8.00;;;6.78;;
7203;SDS011;3643;52.460;13.322;2023-06-26T06:50:31;7.30;;;6.60;;
7203;SDS011;3643;52.460;13.322;2023-06-26T06:52:59;7.55;;;6.82;;
7203;SDS011;3643;52.460;13.322;2023-06-26T06:55:27;8.77;;;6.70;;
7203;SDS011;3643;52.460;13.322;2023-06-26T06:57:55;7.72;;;6.95;;
7203;SDS011;3643;52.460;13.322;2023-06-26T07:00:24;6.70;;;6.10;;
7203;SDS011;3643;52.460;13.322;2023-06-26T07:02:53;7.55;;;6.60;;
7203;SDS011;3643;52.460;13.322;2023-06-26T07:05:23;7.60;;;6.43;;
7203;SDS011;3643;52.460;13.322;2023-06-26T07:07:52;6.20;;;5.47;;
7203;SDS011;3643;52.460;13.322;2023-06-26T07:10:21;5.47;;;4.57;;
7203;SDS011;3643;52.460;13.322;2023-06-26T07:12:49;5.13;;;4.63;;
7203;SDS011;3643;52.460;13.322;2023-06-26T07:15:17;6.03;;;5.53;;
7203;SDS011;3643;52.460;13.322;2023-06-26T07:17:46;10.10;;;6.20;;
7203;SDS011;3643;52.460;13.322;2023-06-26T07:20:14;5.85;;;5.35;;
7203;SDS011;3643;52.460;13.322;2023-06-26T07:22:43;6.57;;;5.68;;
7203;SDS011;3643;52.460;13.322;2023-06-26T07:25:13;5.38;;;4.97;;
7203;SDS011;3643;52.460;13.322;2023-06-26T07:27:42;5.45;;;4.88;;
7203;SDS011;3643;52.460;13.322;2023-06-26T07:30:11;6.53;;;5.90;;
7203;SDS011;3643;52.460;13.322;2023-06-26T07:32:40;6.40;;;5.30;;
7203;SDS011;3643;52.460;13.322;2023-06-26T07:35:09;6.32;;;4.95;;
7203;SDS011;3643;52.460;13.322;2023-06-26T07:37:38;5.15;;;4.65;;
7203;SDS011;3643;52.460;13.322;2023-06-26T07:40:08;4.97;;;4.28;;
7203;SDS011;3643;52.460;13.322;2023-06-26T07:42:38;5.65;;;5.15;;
7203;SDS011;3643;52.460;13.322;2023-06-26T07:45:08;4.88;;;4.32;;
7203;SDS011;3643;52.460;13.322;2023-06-26T07:47:39;5.95;;;4.70;;
7203;SDS011;3643;52.460;13.322;2023-06-26T07:50:08;5.20;;;4.78;;
7203;SDS011;3643;52.460;13.322;2023-06-26T07:52:36;5.78;;;5.18;;
7203;SDS011;3643;52.460;13.322;2023-06-26T07:55:05;5.53;;;5.03;;
7203;SDS011;3643;52.460;13.322;2023-06-26T07:57:34;5.70;;;5.18;;
7203;SDS011;3643;52.460;13.322;2023-06-26T08:00:04;5.90;;;5.30;;
7203;SDS011;3643;52.460;13.322;2023-06-26T08:02:34;5.32;;;4.93;;
7203;SDS011;3643;52.460;13.322;2023-06-26T08:05:02;4.75;;;4.35;;
7203;SDS011;3643;52.460;13.322;2023-06-26T08:07:30;5.95;;;5.15;;
7203;SDS011;3643;52.460;13.322;2023-06-26T08:09:59;5.13;;;4.63;;
7203;SDS011;3643;52.460;13.322;2023-06-26T08:12:27;5.13;;;4.63;;
7203;SDS011;3643;52.460;13.322;2023-06-26T08:14:55;5.68;;;4.78;;
7203;SDS011;3643;52.460;13.322;2023-06-26T08:17:25;6.28;;;5.68;;
7203;SDS011;3643;52.460;13.322;2023-06-26T08:19:55;6.10;;;5.50;;
7203;SDS011;3643;52.460;13.322;2023-06-26T08:22:24;6.40;;;5.03;;
7203;SDS011;3643;52.460;13.322;2023-06-26T08:24:52;5.35;;;4.90;;
7203;SDS011;3643;52.460;13.322;2023-06-26T08:27:20;6.13;;;5.63;;
7203;SDS011;3643;52.460;13.322;2023-06-26T08:29:48;5.32;;;4.82;;
7203;SDS011;3643;52.460;13.322;2023-06-26T08:32:17;7.55;;;5.20;;
7203;SDS011;3643;52.460;13.322;2023-06-26T08:34:47;4.43;;;4.03;;
7203;SDS011;3643;52.460;13.322;2023-06-26T08:37:15;4.80;;;4.40;;
7203;SDS011;3643;52.460;13.322;2023-06-26T08:39:43;4.72;;;4.30;;
7203;SDS011;3643;52.460;13.322;2023-06-26T08:42:11;5.35;;;4.95;;
7203;SDS011;3643;52.460;13.322;2023-06-26T08:44:40;5.20;;;4.70;;
7203;SDS011;3643;52.460;13.322;2023-06-26T08:47:22;4.75;;;4.35;;
7203;SDS011;3643;52.460;13.322;2023-06-26T08:49:53;5.10;;;4.60;;
7203;SDS011;3643;52.460;13.322;2023-06-26T08:52:31;5.18;;;4.63;;
7203;SDS011;3643;52.460;13.322;2023-06-26T08:55:05;4.65;;;4.30;;
7203;SDS011;3643;52.460;13.322;2023-06-26T08:57:36;5.25;;;4.45;;
7203;SDS011;3643;52.460;13.322;2023-06-26T09:00:05;5.40;;;4.35;;
7203;SDS011;3643;52.460;13.322;2023-06-26T09:02:35;5.05;;;4.40;;
7203;SDS011;3643;52.460;13.322;2023-06-26T09:05:06;5.57;;;4.65;;
7203;SDS011;3643;52.460;13.322;2023-06-26T09:07:35;4.40;;;4.10;;
7203;SDS011;3643;52.460;13.322;2023-06-26T09:10:03;6.53;;;4.38;;
7203;SDS011;3643;52.460;13.322;2023-06-26T09:12:33;4.57;;;4.13;;
7203;SDS011;3643;52.460;13.322;2023-06-26T09:15:02;4.95;;;4.55;;
7203;SDS011;3643;52.460;13.322;2023-06-26T09:17:33;4.70;;;4.28;;
7203;SDS011;3643;52.460;13.322;2023-06-26T09:20:08;4.60;;;4.20;;
7203;SDS011;3643;52.460;13.322;2023-06-26T09:22:38;4.35;;;3.95;;
7203;SDS011;3643;52.460;13.322;2023-06-26T09:25:08;6.13;;;3.92;;
7203;SDS011;3643;52.460;13.322;2023-06-26T09:27:37;4.68;;;4.28;;
7203;SDS011;3643;52.460;13.322;2023-06-26T09:30:06;4.93;;;4.00;;
7203;SDS011;3643;52.460;13.322;2023-06-26T09:32:34;4.30;;;3.90;;
7203;SDS011;3643;52.460;13.322;2023-06-26T09:35:04;4.65;;;4.25;;
7203;SDS011;3643;52.460;13.322;2023-06-26T09:37:35;4.90;;;4.50;;
7203;SDS011;3643;52.460;13.322;2023-06-26T09:40:04;5.47;;;4.53;;
7203;SDS011;3643;52.460;13.322;2023-06-26T09:42:33;6.50;;;4.25;;
7203;SDS011;3643;52.460;13.322;2023-06-26T09:45:01;5.18;;;4.30;;
7203;SDS011;3643;52.460;13.322;2023-06-26T09:47:30;4.55;;;4.10;;
7203;SDS011;3643;52.460;13.322;2023-06-26T09:50:02;4.97;;;4.30;;
7203;SDS011;3643;52.460;13.322;2023-06-26T09:52:31;5.97;;;4.45;;
7203;SDS011;3643;52.460;13.322;2023-06-26T09:55:09;4.78;;;4.00;;
7203;SDS011;3643;52.460;13.322;2023-06-26T09:57:38;4.80;;;4.32;;
7203;SDS011;3643;52.460;13.322;2023-06-26T10:00:08;4.72;;;4.32;;
7203;SDS011;3643;52.460;13.322;2023-06-26T10:02:38;5.35;;;4.05;;
7203;SDS011;3643;52.460;13.322;2023-06-26T10:05:07;4.90;;;4.40;;
7203;SDS011;3643;52.460;13.322;2023-06-26T10:07:35;4.47;;;4.07;;
7203;SDS011;3643;52.460;13.322;2023-06-26T10:10:05;4.43;;;4.03;;
7203;SDS011;3643;52.460;13.322;2023-06-26T10:12:37;8.45;;;4.90;;
7203;SDS011;3643;52.460;13.322;2023-06-26T10:15:06;5.72;;;4.10;;
7203;SDS011;3643;52.460;13.322;2023-06-26T10:17:40;5.53;;;4.25;;
7203;SDS011;3643;52.460;13.322;2023-06-26T10:20:11;4.63;;;4.10;;
7203;SDS011;3643;52.460;13.322;2023-06-26T10:22:42;4.55;;;4.15;;
7203;SDS011;3643;52.460;13.322;2023-06-26T10:25:16;4.95;;;3.95;;
7203;SDS011;3643;52.460;13.322;2023-06-26T10:27:49;4.35;;;3.95;;
7203;SDS011;3643;52.460;13.322;2023-06-26T10:30:22;4.22;;;3.83;;
7203;SDS011;3643;52.460;13.322;2023-06-26T10:32:55;4.07;;;3.63;;
7203;SDS011;3643;52.460;13.322;2023-06-26T10:35:24;4.55;;;4.15;;
7203;SDS011;3643;52.460;13.322;2023-06-26T10:38:00;6.70;;;4.20;;
7203;SDS011;3643;52.460;13.322;2023-06-26T10:40:41;3.97;;;3.67;;
7203;SDS011;3643;52.460;13.322;2023-06-26T10:43:11;5.43;;;4.22;;
7203;SDS011;3643;52.460;13.322;2023-06-26T10:45:44;4.68;;;4.15;;
7203;SDS011;3643;52.460;13.322;2023-06-26T10:48:18;4.40;;;4.00;;
7203;SDS011;3643;52.460;13.322;2023-06-26T10:50:47;4.13;;;3.72;;
7203;SDS011;3643;52.460;13.322;2023-06-26T10:53:16;4.43;;;4.03;;
7203;SDS011;3643;52.460;13.322;2023-06-26T10:55:58;4.47;;;4.07;;
7203;SDS011;3643;52.460;13.322;2023-06-26T10:58:32;4.65;;;4.18;;
7203;SDS011;3643;52.460;13.322;2023-06-26T11:01:14;4.57;;;3.95;;
7203;SDS011;3643;52.460;13.322;2023-06-26T11:03:46;4.38;;;3.97;;
7203;SDS011;3643;52.460;13.322;2023-06-26T11:06:19;5.68;;;4.07;;
7203;SDS011;3643;52.460;13.322;2023-06-26T11:08:49;4.55;;;3.72;;
7203;SDS011;3643;52.460;13.322;2023-06-26T11:11:21;5.00;;;4.50;;
7203;SDS011;3643;52.460;13.322;2023-06-26T11:14:10;4.78;;;3.85;;
7203;SDS011;3643;52.460;13.322;2023-06-26T11:16:40;5.88;;;4.20;;
7203;SDS011;3643;52.460;13.322;2023-06-26T11:19:10;4.63;;;4.22;;
7203;SDS011;3643;52.460;13.322;2023-06-26T11:21:39;6.28;;;4.05;;
7203;SDS011;3643;52.460;13.322;2023-06-26T11:24:08;4.97;;;4.07;;
7203;SDS011;3643;52.460;13.322;2023-06-26T11:26:39;4.75;;;4.25;;
7203;SDS011;3643;52.460;13.322;2023-06-26T11:29:08;4.85;;;4.30;;
7203;SDS011;3643;52.460;13.322;2023-06-26T11:31:38;4.32;;;3.92;;
7203;SDS011;3643;52.460;13.322;2023-06-26T11:34:08;4.53;;;4.13;;
7203;SDS011;3643;52.460;13.322;2023-06-26T11:36:38;4.90;;;4.40;;
7203;SDS011;3643;52.460;13.322;2023-06-26T11:39:08;4.57;;;4.18;;
7203;SDS011;3643;52.460;13.322;2023-06-26T11:41:39;4.70;;;4.30;;
7203;SDS011;3643;52.460;13.322;2023-06-26T11:44:09;5.18;;;4.05;;
7203;SDS011;3643;52.460;13.322;2023-06-26T11:46:38;4.80;;;4.30;;
7203;SDS011;3643;52.460;13.322;2023-06-26T11:49:06;5.35;;;4.15;;
7203;SDS011;3643;52.460;13.322;2023-06-26T11:51:35;4.63;;;4.22;;
7203;SDS011;3643;52.460;13.322;2023-06-26T11:54:04;7.13;;;4.68;;
7203;SDS011;3643;52.460;13.322;2023-06-26T11:56:32;5.00;;;4.50;;
7203;SDS011;3643;52.460;13.322;2023-06-26T11:59:03;5.07;;;4.57;;
7203;SDS011;3643;52.460;13.322;2023-06-26T12:01:38;5.22;;;4.70;;
7203;SDS011;3643;52.460;13.322;2023-06-26T12:04:09;5.20;;;4.47;;
7203;SDS011;3643;52.460;13.322;2023-06-26T12:06:39;5.68;;;4.80;;
7203;SDS011;3643;52.460;13.322;2023-06-26T12:09:10;4.65;;;4.25;;
7203;SDS011;3643;52.460;13.322;2023-06-26T12:11:40;6.55;;;4.72;;
7203;SDS011;3643;52.460;13.322;2023-06-26T12:14:11;5.07;;;4.57;;
7203;SDS011;3643;52.460;13.322;2023-06-26T12:16:52;5.18;;;4.68;;
7203;SDS011;3643;52.460;13.322;2023-06-26T12:19:24;5.55;;;5.07;;
7203;SDS011;3643;52.460;13.322;2023-06-26T12:21:53;5.28;;;4.30;;
7203;SDS011;3643;52.460;13.322;2023-06-26T12:24:23;5.32;;;4.82;;
7203;SDS011;3643;52.460;13.322;2023-06-26T12:26:52;5.00;;;4.53;;
7203;SDS011;3643;52.460;13.322;2023-06-26T12:29:28;6.25;;;5.70;;
7203;SDS011;3643;52.460;13.322;2023-06-26T12:32:01;5.32;;;4.82;;
7203;SDS011;3643;52.460;13.322;2023-06-26T12:34:30;5.90;;;5.03;;
7203;SDS011;3643;52.460;13.322;2023-06-26T12:37:01;5.47;;;5.00;;
7203;SDS011;3643;52.460;13.322;2023-06-26T12:39:30;5.55;;;4.85;;
7203;SDS011;3643;52.460;13.322;2023-06-26T12:42:14;6.47;;;5.55;;
7203;SDS011;3643;52.460;13.322;2023-06-26T12:44:43;8.60;;;5.15;;
7203;SDS011;3643;52.460;13.322;2023-06-26T12:47:14;6.45;;;5.75;;
7203;SDS011;3643;52.460;13.322;2023-06-26T12:49:43;7.45;;;5.45;;
7203;SDS011;3643;52.460;13.322;2023-06-26T12:52:13;5.53;;;5.03;;
7203;SDS011;3643;52.460;13.322;2023-06-26T12:54:42;6.03;;;5.32;;
7203;SDS011;3643;52.460;13.322;2023-06-26T12:57:13;5.65;;;5.15;;
7203;SDS011;3643;52.460;13.322;2023-06-26T12:59:41;5.93;;;5.32;;
7203;SDS011;3643;52.460;13.322;2023-06-26T13:02:10;6.95;;;5.13;;
7203;SDS011;3643;52.460;13.322;2023-06-26T13:04:40;6.43;;;5.07;;
7203;SDS011;3643;52.460;13.322;2023-06-26T13:07:11;6.43;;;5.10;;
7203;SDS011;3643;52.460;13.322;2023-06-26T13:09:39;6.57;;;5.80;;
7203;SDS011;3643;52.460;13.322;2023-06-26T13:12:08;6.60;;;5.90;;
7203;SDS011;3643;52.460;13.322;2023-06-26T13:14:36;6.30;;;5.70;;
7203;SDS011;3643;52.460;13.322;2023-06-26T13:17:05;5.60;;;5.10;;
7203;SDS011;3643;52.460;13.322;2023-06-26T13:19:35;6.13;;;5.57;;
7203;SDS011;3643;52.460;13.322;2023-06-26T13:22:05;7.40;;;5.35;;
7203;SDS011;3643;52.460;13.322;2023-06-26T13:24:34;5.43;;;4.88;;
7203;SDS011;3643;52.460;13.322;2023-06-26T13:27:02;5.53;;;4.43;;
7203;SDS011;3643;52.460;13.322;2023-06-26T13:29:31;6.22;;;4.70;;
7203;SDS011;3643;52.460;13.322;2023-06-26T13:31:59;8.82;;;5.55;;
7203;SDS011;3643;52.460;13.322;2023-06-26T13:34:28;6.45;;;5.85;;
7203;SDS011;3643;52.460;13.322;2023-06-26T13:36:56;6.47;;;5.82;;
7203;SDS011;3643;52.460;13.322;2023-06-26T13:39:27;7.60;;;5.55;;
7203;SDS011;3643;52.460;13.322;2023-06-26T13:41:56;6.45;;;5.68;;
7203;SDS011;3643;52.460;13.322;2023-06-26T13:44:24;6.65;;;5.57;;
7203;SDS011;3643;52.460;13.322;2023-06-26T13:47:06;5.40;;;4.90;;
7203;SDS011;3643;52.460;13.322;2023-06-26T13:49:36;5.63;;;5.13;;
7203;SDS011;3643;52.460;13.322;2023-06-26T13:52:04;8.90;;;7.45;;
7203;SDS011;3643;52.460;13.322;2023-06-26T13:54:35;6.18;;;5.47;;
7203;SDS011;3643;52.460;13.322;2023-06-26T13:57:06;8.05;;;6.13;;
7203;SDS011;3643;52.460;13.322;2023-06-26T13:59:36;6.75;;;5.72;;
7203;SDS011;3643;52.460;13.322;2023-06-26T14:02:06;7.07;;;6.18;;
7203;SDS011;3643;52.460;13.322;2023-06-26T14:04:35;5.93;;;5.32;;
7203;SDS011;3643;52.460;13.322;2023-06-26T14:07:04;6.18;;;5.57;;
7203;SDS011;3643;52.460;13.322;2023-06-26T14:09:33;6.35;;;5.75;;
7203;SDS011;3643;52.460;13.322;2023-06-26T14:12:03;7.38;;;5.15;;
7203;SDS011;3643;52.460;13.322;2023-06-26T14:14:32;5.80;;;5.25;;
7203;SDS011;3643;52.460;13.322;2023-06-26T14:17:00;5.50;;;4.82;;
7203;SDS011;3643;52.460;13.322;2023-06-26T14:19:29;5.60;;;4.20;;
7203;SDS011;3643;52.460;13.322;2023-06-26T14:21:57;10.45;;;5.50;;
7203;SDS011;3643;52.460;13.322;2023-06-26T14:24:26;10.02;;;6.30;;
7203;SDS011;3643;52.460;13.322;2023-06-26T14:26:55;7.03;;;4.80;;
7203;SDS011;3643;52.460;13.322;2023-06-26T14:29:24;7.47;;;4.13;;
7203;SDS011;3643;52.460;13.322;2023-06-26T14:31:52;2.70;;;2.50;;
7203;SDS011;3643;52.460;13.322;2023-06-26T14:34:22;5.47;;;3.80;;
7203;SDS011;3643;52.460;13.322;2023-06-26T14:36:50;5.77;;;4.10;;
7203;SDS011;3643;52.460;13.322;2023-06-26T14:39:18;6.00;;;3.70;;
7203;SDS011;3643;52.460;13.322;2023-06-26T14:41:47;11.07;;;7.40;;
7203;SDS011;3643;52.460;13.322;2023-06-26T14:44:17;11.77;;;9.30;;
7203;SDS011;3643;52.460;13.322;2023-06-26T14:46:46;14.80;;;10.27;;
7203;SDS011;3643;52.460;13.322;2023-06-26T14:49:14;19.43;;;11.73;;
7203;SDS011;3643;52.460;13.322;2023-06-26T14:51:43;18.77;;;12.13;;
7203;SDS011;3643;52.460;13.322;2023-06-26T14:54:11;18.93;;;11.40;;
7203;SDS011;3643;52.460;13.322;2023-06-26T14:56:39;17.13;;;12.97;;
7203;SDS011;3643;52.460;13.322;2023-06-26T14:59:09;18.13;;;13.13;;
7203;SDS011;3643;52.460;13.322;2023-06-26T15:01:40;20.00;;;13.57;;
7203;SDS011;3643;52.460;13.322;2023-06-26T15:04:08;17.63;;;11.67;;
7203;SDS011;3643;52.460;13.322;2023-06-26T15:06:38;17.00;;;10.20;;
7203;SDS011;3643;52.460;13.322;2023-06-26T15:09:06;17.23;;;9.73;;